Time,TemperatureF,DewpointF,PressureIn,WindDirection,WindDirectionDegrees,WindSpeedMPH,WindSpeedGustMPH,Humidity,HourlyPrecipIn,Conditions,Clouds,dailyrainin,SoftwareType,DateUTC
2013-04-16 00:00:00,39.6,34.6,29.84,West,270,4.0,7.6,82,0.00,,,0.00,WUHU216HW,2013-04-16 05:00:00,
2013-04-16 00:05:00,39.6,34.8,29.84,WSW,248,4.0,5.1,83,0.00,,,0.00,WUHU216HW,2013-04-16 05:05:00,
2013-04-16 00:10:00,39.2,34.6,29.85,WSW,248,4.7,5.4,83,0.00,,,0.00,WUHU216HW,2013-04-16 05:10:00,
2013-04-16 00:15:00,39.2,34.6,29.85,WSW,248,4.3,6.7,83,0.00,,,0.00,WUHU216HW,2013-04-16 05:15:00,
2013-04-16 00:20:00,39.1,34.4,29.85,West,270,6.5,6.7,83,0.00,,,0.00,WUHU216HW,2013-04-16 05:20:00,
2013-04-16 00:25:00,39.1,34.0,29.85,WSW,248,6.3,7.6,82,0.00,,,0.00,WUHU216HW,2013-04-16 05:25:00,
2013-04-16 00:30:00,38.9,33.8,29.85,WSW,248,3.8,7.6,82,0.00,,,0.00,WUHU216HW,2013-04-16 05:30:00,
2013-04-16 00:35:00,38.7,33.7,29.85,West,270,4.0,6.5,82,0.00,,,0.00,WUHU216HW,2013-04-16 05:35:00,
2013-04-16 00:40:00,38.5,33.9,29.85,WNW,293,3.4,5.6,83,0.00,,,0.00,WUHU216HW,2013-04-16 05:40:00,
2013-04-16 00:45:00,38.3,33.7,29.85,West,270,2.2,5.1,83,0.00,,,0.00,WUHU216HW,2013-04-16 05:45:00,
2013-04-16 00:50:00,38.2,33.5,29.85,West,270,3.8,4.3,83,0.00,,,0.00,WUHU216HW,2013-04-16 05:50:00,
2013-04-16 00:55:00,38.0,33.3,29.85,WSW,248,4.7,5.8,83,0.00,,,0.00,WUHU216HW,2013-04-16 05:55:00,
2013-04-16 01:00:00,37.8,33.1,29.84,West,270,2.7,5.8,83,0.00,,,0.00,WUHU216HW,2013-04-16 06:00:00,
2013-04-16 01:05:00,37.6,33.0,29.84,WSW,248,5.1,5.4,83,0.00,,,0.00,WUHU216HW,2013-04-16 06:05:00,
2013-04-16 01:10:00,37.4,32.4,29.84,West,270,4.0,5.4,82,0.00,,,0.00,WUHU216HW,2013-04-16 06:10:00,
2013-04-16 01:15:00,37.3,32.2,29.84,West,270,1.3,4.7,82,0.00,,,0.00,WUHU216HW,2013-04-16 06:15:00,
2013-04-16 01:20:00,37.1,32.0,29.84,West,270,1.6,4.7,82,0.00,,,0.00,WUHU216HW,2013-04-16 06:20:00,
2013-04-16 01:25:00,37.1,32.0,29.84,WSW,248,2.5,3.6,82,0.00,,,0.00,WUHU216HW,2013-04-16 06:25:00,
2013-04-16 01:30:00,36.7,31.7,29.85,SW,225,3.4,4.0,82,0.00,,,0.00,WUHU216HW,2013-04-16 06:30:00,
2013-04-16 01:35:00,36.7,31.7,29.85,WSW,248,2.5,4.0,82,0.00,,,0.00,WUHU216HW,2013-04-16 06:35:00,
2013-04-16 01:40:00,36.5,31.5,29.84,WSW,248,2.7,4.0,82,0.00,,,0.00,WUHU216HW,2013-04-16 06:40:00,
2013-04-16 01:45:00,36.4,31.3,29.84,WNW,293,3.1,4.0,82,0.00,,,0.00,WUHU216HW,2013-04-16 06:45:00,
2013-04-16 01:50:00,36.4,31.3,29.84,West,270,1.6,4.0,82,0.00,,,0.00,WUHU216HW,2013-04-16 06:50:00,
2013-04-16 01:55:00,36.2,31.1,29.84,WNW,293,3.4,4.3,82,0.00,,,0.00,WUHU216HW,2013-04-16 06:55:00,
2013-04-16 02:00:00,36.2,30.9,29.84,WSW,248,4.0,5.1,81,0.00,,,0.00,WUHU216HW,2013-04-16 07:00:00,
2013-04-16 02:05:00,36.0,30.7,29.84,West,270,4.0,5.1,81,0.00,,,0.00,WUHU216HW,2013-04-16 07:05:00,
2013-04-16 02:10:00,35.8,30.5,29.85,WNW,293,4.5,4.7,81,0.00,,,0.00,WUHU216HW,2013-04-16 07:10:00,
2013-04-16 02:15:00,35.8,30.5,29.85,West,270,4.3,6.3,81,0.00,,,0.00,WUHU216HW,2013-04-16 07:15:00,
2013-04-16 02:20:00,35.6,30.3,29.86,West,270,3.1,6.3,81,0.00,,,0.00,WUHU216HW,2013-04-16 07:20:00,
2013-04-16 02:24:00,35.6,30.3,29.85,West,270,4.7,5.4,81,0.00,,,0.00,WUHU216HW,2013-04-16 07:24:00,
2013-04-16 02:29:00,35.5,30.2,29.85,West,270,2.7,4.9,81,0.00,,,0.00,WUHU216HW,2013-04-16 07:29:00,
2013-04-16 02:34:00,35.3,30.0,29.86,West,270,3.8,5.8,81,0.00,,,0.00,WUHU216HW,2013-04-16 07:34:00,
2013-04-16 02:39:00,35.3,30.0,29.86,WSW,248,4.0,5.8,81,0.00,,,0.00,WUHU216HW,2013-04-16 07:39:00,
2013-04-16 02:44:00,35.1,29.8,29.86,WSW,248,1.8,4.5,81,0.00,,,0.00,WUHU216HW,2013-04-16 07:44:00,
2013-04-16 02:49:00,34.9,29.9,29.86,WSW,248,2.9,4.5,82,0.00,,,0.00,WUHU216HW,2013-04-16 07:49:00,
2013-04-16 02:54:00,34.9,29.9,29.87,WSW,248,2.5,4.3,82,0.00,,,0.00,WUHU216HW,2013-04-16 07:54:00,
2013-04-16 02:59:00,34.9,29.9,29.88,West,270,2.9,4.3,82,0.00,,,0.00,WUHU216HW,2013-04-16 07:59:00,
2013-04-16 03:04:00,34.7,29.7,29.88,West,270,5.4,6.0,82,0.00,,,0.00,WUHU216HW,2013-04-16 08:04:00,
2013-04-16 03:09:00,34.6,29.5,29.88,WNW,293,3.1,6.0,82,0.00,,,0.00,WUHU216HW,2013-04-16 08:09:00,
2013-04-16 03:14:00,34.6,29.5,29.88,West,270,1.8,4.5,82,0.00,,,0.00,WUHU216HW,2013-04-16 08:14:00,
2013-04-16 03:19:00,34.4,29.3,29.88,WSW,248,2.5,4.5,82,0.00,,,0.00,WUHU216HW,2013-04-16 08:19:00,
2013-04-16 03:24:00,34.2,29.2,29.88,WSW,248,3.4,3.4,82,0.00,,,0.00,WUHU216HW,2013-04-16 08:24:00,
2013-04-16 03:29:00,34.0,29.0,29.88,WSW,248,3.6,4.3,82,0.00,,,0.00,WUHU216HW,2013-04-16 08:29:00,
2013-04-16 03:34:00,33.7,28.4,29.88,WSW,248,3.1,4.3,81,0.00,,,0.00,WUHU216HW,2013-04-16 08:34:00,
2013-04-16 03:39:00,33.7,28.7,29.88,West,270,4.0,4.0,82,0.00,,,0.00,WUHU216HW,2013-04-16 08:39:00,
2013-04-16 03:44:00,33.5,28.8,29.89,West,270,3.1,4.7,83,0.00,,,0.00,WUHU216HW,2013-04-16 08:44:00,
2013-04-16 03:49:00,33.5,28.8,29.89,West,270,2.7,4.7,83,0.00,,,0.00,WUHU216HW,2013-04-16 08:49:00,
2013-04-16 03:54:00,33.5,28.8,29.88,West,270,2.2,4.3,83,0.00,,,0.00,WUHU216HW,2013-04-16 08:54:00,
2013-04-16 03:59:00,33.5,28.8,29.88,WSW,248,4.0,4.3,83,0.00,,,0.00,WUHU216HW,2013-04-16 08:59:00,
2013-04-16 04:04:00,33.7,29.0,29.88,West,270,4.5,6.9,83,0.00,,,0.00,WUHU216HW,2013-04-16 09:04:00,
2013-04-16 04:09:00,33.8,29.2,29.89,West,270,2.9,6.9,83,0.00,,,0.00,WUHU216HW,2013-04-16 09:09:00,
2013-04-16 04:14:00,33.8,29.2,29.89,WNW,293,2.5,6.9,83,0.00,,,0.00,WUHU216HW,2013-04-16 09:14:00,
2013-04-16 04:19:00,33.7,29.0,29.89,WSW,248,4.0,6.9,83,0.00,,,0.00,WUHU216HW,2013-04-16 09:19:00,
2013-04-16 04:24:00,33.7,29.0,29.90,WNW,293,3.4,6.9,83,0.00,,,0.00,WUHU216HW,2013-04-16 09:24:00,
2013-04-16 04:29:00,33.5,28.8,29.90,WSW,248,2.7,4.9,83,0.00,,,0.00,WUHU216HW,2013-04-16 09:29:00,
2013-04-16 04:34:00,33.3,28.6,29.90,WSW,248,2.7,6.0,83,0.00,,,0.00,WUHU216HW,2013-04-16 09:34:00,
2013-04-16 04:39:00,33.1,28.4,29.90,WSW,248,2.7,6.0,83,0.00,,,0.00,WUHU216HW,2013-04-16 09:39:00,
2013-04-16 04:44:00,32.9,28.4,29.90,WSW,248,2.5,4.7,83,0.00,,,0.00,WUHU216HW,2013-04-16 09:44:00,
2013-04-16 04:49:00,32.9,28.4,29.90,WSW,248,3.8,4.7,83,0.00,,,0.00,WUHU216HW,2013-04-16 09:49:00,
2013-04-16 04:54:00,32.8,28.2,29.90,West,270,2.5,4.7,83,0.00,,,0.00,WUHU216HW,2013-04-16 09:54:00,
2013-04-16 04:59:00,32.8,28.2,29.90,WSW,248,4.9,4.9,83,0.00,,,0.00,WUHU216HW,2013-04-16 09:59:00,
2013-04-16 05:04:00,32.8,28.2,29.91,West,270,3.4,4.9,83,0.00,,,0.00,WUHU216HW,2013-04-16 10:04:00,
2013-04-16 05:09:00,32.6,28.0,29.91,West,270,4.3,4.9,83,0.00,,,0.00,WUHU216HW,2013-04-16 10:09:00,
2013-04-16 05:14:00,32.6,28.3,29.91,NW,315,2.5,4.9,84,0.00,,,0.00,WUHU216HW,2013-04-16 10:14:00,
2013-04-16 05:19:00,32.6,28.3,29.91,West,270,1.3,4.5,84,0.00,,,0.00,WUHU216HW,2013-04-16 10:19:00,
2013-04-16 05:24:00,32.4,27.8,29.90,WNW,293,1.3,3.1,83,0.00,,,0.00,WUHU216HW,2013-04-16 10:24:00,
2013-04-16 05:29:00,32.2,28.0,29.91,West,270,4.9,4.9,84,0.00,,,0.00,WUHU216HW,2013-04-16 10:29:00,
2013-04-16 05:34:00,32.2,28.0,29.91,WSW,248,2.9,4.9,84,0.00,,,0.00,WUHU216HW,2013-04-16 10:34:00,
2013-04-16 05:39:00,32.4,28.5,29.91,WNW,293,2.5,4.9,85,0.00,,,0.00,WUHU216HW,2013-04-16 10:39:00,
2013-04-16 05:44:00,32.4,28.1,29.92,West,270,3.4,4.9,84,0.00,,,0.00,WUHU216HW,2013-04-16 10:44:00,
2013-04-16 05:49:00,32.2,28.0,29.92,West,270,3.4,4.7,84,0.00,,,0.00,WUHU216HW,2013-04-16 10:49:00,
2013-04-16 05:54:00,32.2,28.0,29.93,West,270,4.5,4.7,84,0.00,,,0.00,WUHU216HW,2013-04-16 10:54:00,
2013-04-16 05:59:00,32.0,28.1,29.92,West,270,2.9,4.7,85,0.00,,,0.00,WUHU216HW,2013-04-16 10:59:00,
2013-04-16 06:04:00,32.2,28.3,29.92,West,270,5.6,5.6,85,0.00,,,0.00,WUHU216HW,2013-04-16 11:04:00,
2013-04-16 06:09:00,32.2,28.0,29.92,WSW,248,2.9,5.6,84,0.00,,,0.00,WUHU216HW,2013-04-16 11:09:00,
2013-04-16 06:14:00,32.4,28.1,29.92,WNW,293,3.6,5.6,84,0.00,,,0.00,WUHU216HW,2013-04-16 11:14:00,
2013-04-16 06:19:00,32.2,28.0,29.93,West,270,4.0,5.1,84,0.00,,,0.00,WUHU216HW,2013-04-16 11:19:00,
2013-04-16 06:24:00,32.2,28.0,29.93,WSW,248,3.4,5.1,84,0.00,,,0.00,WUHU216HW,2013-04-16 11:24:00,
2013-04-16 06:29:00,32.2,28.0,29.92,WSW,248,4.9,5.1,84,0.00,,,0.00,WUHU216HW,2013-04-16 11:29:00,
2013-04-16 06:34:00,32.8,28.4,29.93,West,270,4.5,5.1,84,0.00,,,0.00,WUHU216HW,2013-04-16 11:34:00,
2013-04-16 06:39:00,33.5,28.8,29.94,West,270,4.9,5.4,83,0.00,,,0.00,WUHU216HW,2013-04-16 11:39:00,
2013-04-16 06:44:00,34.4,29.7,29.94,West,270,5.4,6.3,83,0.00,,,0.00,WUHU216HW,2013-04-16 11:44:00,
2013-04-16 06:49:00,34.9,29.3,29.94,WSW,248,5.1,6.7,80,0.00,,,0.00,WUHU216HW,2013-04-16 11:49:00,
2013-04-16 06:54:00,35.6,29.7,29.94,WSW,248,3.6,6.7,79,0.00,,,0.00,WUHU216HW,2013-04-16 11:54:00,
2013-04-16 06:59:00,36.4,30.8,29.95,WSW,248,3.4,6.3,80,0.00,,,0.00,WUHU216HW,2013-04-16 11:59:00,
2013-04-16 07:04:00,37.8,32.2,29.95,West,270,1.8,5.8,80,0.00,,,0.00,WUHU216HW,2013-04-16 12:04:00,
2013-04-16 07:09:00,37.8,30.9,29.96,WSW,248,4.0,6.3,76,0.00,,,0.00,WUHU216HW,2013-04-16 12:09:00,
2013-04-16 07:14:00,36.9,30.1,29.96,WNW,293,6.3,6.3,76,0.00,,,0.00,WUHU216HW,2013-04-16 12:14:00,
2013-04-16 07:19:00,35.8,29.3,29.96,WNW,293,2.5,6.3,77,0.00,,,0.00,WUHU216HW,2013-04-16 12:19:00,
2013-04-16 07:24:00,35.5,29.3,29.96,WNW,293,2.9,7.2,78,0.00,,,0.00,WUHU216HW,2013-04-16 12:24:00,
2013-04-16 07:29:00,35.3,29.3,29.97,SW,225,2.2,7.2,79,0.00,,,0.00,WUHU216HW,2013-04-16 12:29:00,
2013-04-16 07:34:00,35.5,29.5,29.98,West,270,4.0,8.1,79,0.00,,,0.00,WUHU216HW,2013-04-16 12:34:00,
2013-04-16 07:39:00,35.5,29.5,29.98,NW,315,4.9,9.6,79,0.00,,,0.00,WUHU216HW,2013-04-16 12:39:00,
2013-04-16 07:44:00,35.6,30.1,29.98,WNW,293,4.7,9.6,80,0.00,,,0.00,WUHU216HW,2013-04-16 12:44:00,
2013-04-16 07:49:00,35.6,29.7,29.99,NNW,338,6.9,10.5,79,0.00,,,0.00,WUHU216HW,2013-04-16 12:49:00,
2013-04-16 07:54:00,35.6,29.4,29.99,NNW,338,4.9,10.5,78,0.00,,,0.00,WUHU216HW,2013-04-16 12:54:00,
2013-04-16 07:59:00,36.0,29.8,29.99,West,270,8.5,11.9,78,0.00,,,0.00,WUHU216HW,2013-04-16 12:59:00,
2013-04-16 08:04:00,36.2,30.0,30.00,West,270,7.8,11.9,78,0.00,,,0.00,WUHU216HW,2013-04-16 13:04:00,
2013-04-16 08:09:00,36.2,29.6,29.99,WSW,248,9.2,11.4,77,0.00,,,0.00,WUHU216HW,2013-04-16 13:09:00,
2013-04-16 08:14:00,36.4,29.8,30.00,West,270,10.1,12.1,77,0.00,,,0.00,WUHU216HW,2013-04-16 13:14:00,
2013-04-16 08:19:00,36.5,29.7,30.00,West,270,12.8,12.8,76,0.00,,,0.00,WUHU216HW,2013-04-16 13:19:00,
2013-04-16 08:24:00,36.4,29.5,30.00,WSW,248,12.5,12.8,76,0.00,,,0.00,WUHU216HW,2013-04-16 13:24:00,
2013-04-16 08:29:00,36.5,29.7,30.00,NNW,338,7.8,13.9,76,0.00,,,0.00,WUHU216HW,2013-04-16 13:29:00,
2013-04-16 08:34:00,36.7,29.9,30.00,West,270,9.8,13.9,76,0.00,,,0.00,WUHU216HW,2013-04-16 13:34:00,
2013-04-16 08:39:00,36.9,30.1,30.00,NW,315,11.4,16.8,76,0.00,,,0.00,WUHU216HW,2013-04-16 13:39:00,
2013-04-16 08:44:00,37.1,30.3,30.00,NNW,338,8.1,16.8,76,0.00,,,0.00,WUHU216HW,2013-04-16 13:44:00,
2013-04-16 08:49:00,37.4,30.6,30.00,NW,315,11.2,12.8,76,0.00,,,0.00,WUHU216HW,2013-04-16 13:49:00,
2013-04-16 08:54:00,37.4,30.6,30.00,NW,315,10.5,13.0,76,0.00,,,0.00,WUHU216HW,2013-04-16 13:54:00,
2013-04-16 08:59:00,37.6,30.8,30.00,NNW,338,9.4,13.0,76,0.00,,,0.00,WUHU216HW,2013-04-16 13:59:00,
2013-04-16 09:04:00,37.8,30.6,30.00,NW,315,4.7,14.8,75,0.00,,,0.00,WUHU216HW,2013-04-16 14:04:00,
2013-04-16 09:09:00,37.8,30.2,30.00,WSW,248,6.9,15.7,74,0.00,,,0.00,WUHU216HW,2013-04-16 14:09:00,
2013-04-16 09:14:00,38.0,30.4,30.00,NW,315,8.7,15.7,74,0.00,,,0.00,WUHU216HW,2013-04-16 14:14:00,
2013-04-16 09:19:00,38.3,31.1,30.00,West,270,5.4,13.0,75,0.00,,,0.00,WUHU216HW,2013-04-16 14:19:00,
2013-04-16 09:24:00,38.9,31.6,30.01,West,270,6.0,10.7,75,0.00,,,0.00,WUHU216HW,2013-04-16 14:24:00,
2013-04-16 09:29:00,39.1,30.8,30.01,NW,315,11.9,12.5,72,0.00,,,0.00,WUHU216HW,2013-04-16 14:29:00,
2013-04-16 09:34:00,39.2,31.2,30.01,NNE,23,6.0,13.4,73,0.00,,,0.00,WUHU216HW,2013-04-16 14:34:00,
2013-04-16 09:39:00,39.6,30.6,30.01,NW,315,9.2,13.4,70,0.00,,,0.00,WUHU216HW,2013-04-16 14:39:00,
2013-04-16 09:44:00,39.6,31.0,30.00,NW,315,8.7,11.4,71,0.00,,,0.00,WUHU216HW,2013-04-16 14:44:00,
2013-04-16 09:49:00,40.0,32.0,30.01,WSW,248,7.6,10.3,73,0.00,,,0.00,WUHU216HW,2013-04-16 14:49:00,
2013-04-16 09:54:00,40.0,31.0,30.00,North,0,5.1,9.6,70,0.00,,,0.00,WUHU216HW,2013-04-16 14:54:00,
2013-04-16 09:59:00,40.0,31.3,30.01,NNW,338,2.9,9.6,71,0.00,,,0.00,WUHU216HW,2013-04-16 14:59:00,
2013-04-16 10:04:00,40.5,31.9,30.01,West,270,9.4,11.2,71,0.00,,,0.00,WUHU216HW,2013-04-16 15:04:00,
2013-04-16 10:09:00,40.1,31.1,30.01,West,270,9.2,15.7,70,0.00,,,0.00,WUHU216HW,2013-04-16 15:09:00,
2013-04-16 10:14:00,40.5,31.5,30.01,NNW,338,9.6,15.7,70,0.00,,,0.00,WUHU216HW,2013-04-16 15:14:00,
2013-04-16 10:19:00,40.7,31.7,30.01,NW,315,6.5,15.0,70,0.00,,,0.00,WUHU216HW,2013-04-16 15:19:00,
2013-04-16 10:24:00,40.7,31.7,30.02,NNW,338,2.5,15.0,70,0.00,,,0.00,WUHU216HW,2013-04-16 15:24:00,
2013-04-16 10:29:00,41.0,31.3,30.02,WNW,293,11.4,12.5,68,0.00,,,0.00,WUHU216HW,2013-04-16 15:29:00,
2013-04-16 10:34:00,41.4,31.2,30.02,North,0,11.0,12.1,67,0.00,,,0.00,WUHU216HW,2013-04-16 15:34:00,
2013-04-16 10:39:00,41.2,31.1,30.02,NW,315,8.5,16.1,67,0.00,,,0.00,WUHU216HW,2013-04-16 15:39:00,
2013-04-16 10:44:00,41.4,31.2,30.02,North,0,9.4,16.1,67,0.00,,,0.00,WUHU216HW,2013-04-16 15:44:00,
2013-04-16 10:49:00,42.1,32.3,30.03,WNW,293,6.5,15.0,68,0.00,,,0.00,WUHU216HW,2013-04-16 15:49:00,
2013-04-16 10:54:00,41.9,31.8,30.03,WNW,293,4.9,15.0,67,0.00,,,0.00,WUHU216HW,2013-04-16 15:54:00,
2013-04-16 10:59:00,42.3,32.1,30.03,NNW,338,5.1,12.5,67,0.00,,,0.00,WUHU216HW,2013-04-16 15:59:00,
2013-04-16 11:04:00,42.3,33.0,30.03,NW,315,4.7,13.2,69,0.00,,,0.00,WUHU216HW,2013-04-16 16:04:00,
2013-04-16 11:09:00,42.8,31.9,30.04,West,270,9.4,13.2,65,0.00,,,0.00,WUHU216HW,2013-04-16 16:09:00,
2013-04-16 11:14:00,42.8,31.9,30.03,NNW,338,10.7,13.0,65,0.00,,,0.00,WUHU216HW,2013-04-16 16:14:00,
2013-04-16 11:19:00,42.7,32.0,30.04,West,270,9.2,12.5,66,0.00,,,0.00,WUHU216HW,2013-04-16 16:19:00,
2013-04-16 11:24:00,43.0,31.7,30.04,NW,315,6.0,11.4,64,0.00,,,0.00,WUHU216HW,2013-04-16 16:24:00,
2013-04-16 11:29:00,43.0,32.1,30.04,WNW,293,7.6,10.5,65,0.00,,,0.00,WUHU216HW,2013-04-16 16:29:00,
2013-04-16 11:34:00,43.6,32.6,30.04,NW,315,6.7,9.8,65,0.00,,,0.00,WUHU216HW,2013-04-16 16:34:00,
2013-04-16 11:39:00,43.7,32.3,30.04,NNW,338,11.6,13.4,64,0.00,,,0.00,WUHU216HW,2013-04-16 16:39:00,
2013-04-16 11:44:00,43.9,32.5,30.05,WSW,248,6.7,13.4,64,0.00,,,0.00,WUHU216HW,2013-04-16 16:44:00,
2013-04-16 11:49:00,44.3,32.5,30.05,WNW,293,8.3,11.4,63,0.00,,,0.00,WUHU216HW,2013-04-16 16:49:00,
2013-04-16 11:54:00,44.3,32.9,30.05,NW,315,6.9,11.4,64,0.00,,,0.00,WUHU216HW,2013-04-16 16:54:00,
2013-04-16 11:59:00,44.5,33.0,30.05,North,0,4.9,10.5,64,0.00,,,0.00,WUHU216HW,2013-04-16 16:59:00,
2013-04-16 12:04:00,45.2,33.3,30.05,North,0,4.5,9.2,63,0.00,,,0.00,WUHU216HW,2013-04-16 17:04:00,
2013-04-16 12:09:00,45.5,33.7,30.06,NNW,338,6.0,9.8,63,0.00,,,0.00,WUHU216HW,2013-04-16 17:09:00,
2013-04-16 12:14:00,45.7,33.9,30.06,NW,315,2.5,9.8,63,0.00,,,0.00,WUHU216HW,2013-04-16 17:14:00,
2013-04-16 12:19:00,46.1,32.9,30.06,NW,315,3.4,9.4,60,0.00,,,0.00,WUHU216HW,2013-04-16 17:19:00,
2013-04-16 12:24:00,46.1,33.4,30.06,WNW,293,6.7,9.6,61,0.00,,,0.00,WUHU216HW,2013-04-16 17:24:00,
2013-04-16 12:29:00,45.5,33.3,30.05,North,0,6.9,13.9,62,0.00,,,0.00,WUHU216HW,2013-04-16 17:29:00,
2013-04-16 12:34:00,45.7,33.4,30.06,WNW,293,4.3,13.9,62,0.00,,,0.00,WUHU216HW,2013-04-16 17:34:00,
2013-04-16 12:39:00,46.4,32.9,30.06,NNE,23,3.6,12.8,59,0.00,,,0.00,WUHU216HW,2013-04-16 17:39:00,
2013-04-16 12:44:00,46.8,33.7,30.06,WNW,293,6.3,12.5,60,0.00,,,0.00,WUHU216HW,2013-04-16 17:44:00,
2013-04-16 12:49:00,47.0,33.4,30.06,NNW,338,10.5,12.5,59,0.00,,,0.00,WUHU216HW,2013-04-16 17:49:00,
2013-04-16 12:54:00,46.8,34.5,30.06,NNW,338,6.0,13.0,62,0.00,,,0.00,WUHU216HW,2013-04-16 17:54:00,
2013-04-16 12:59:00,47.5,35.2,30.06,WNW,293,4.3,13.0,62,0.00,,,0.00,WUHU216HW,2013-04-16 17:59:00,
2013-04-16 13:04:00,47.7,33.2,30.06,NNW,338,3.8,8.3,57,0.00,,,0.00,WUHU216HW,2013-04-16 18:04:00,
2013-04-16 13:09:00,47.5,33.0,30.06,WNW,293,9.4,14.3,57,0.00,,,0.00,WUHU216HW,2013-04-16 18:09:00,
2013-04-16 13:14:00,47.9,34.3,30.06,WNW,293,11.0,14.3,59,0.00,,,0.00,WUHU216HW,2013-04-16 18:14:00,
2013-04-16 13:19:00,48.2,34.7,30.05,NNW,338,4.9,13.2,59,0.00,,,0.00,WUHU216HW,2013-04-16 18:19:00,
2013-04-16 13:24:00,48.1,33.0,30.05,WNW,293,9.4,14.3,56,0.00,,,0.00,WUHU216HW,2013-04-16 18:24:00,
2013-04-16 13:29:00,47.9,32.4,30.05,WNW,293,11.0,14.3,55,0.00,,,0.00,WUHU216HW,2013-04-16 18:29:00,
2013-04-16 13:34:00,48.2,34.7,30.05,North,0,3.4,13.9,59,0.00,,,0.00,WUHU216HW,2013-04-16 18:34:00,
2013-04-16 13:39:00,48.8,34.2,30.05,WSW,248,7.4,11.0,57,0.00,,,0.00,WUHU216HW,2013-04-16 18:39:00,
2013-04-16 13:44:00,49.1,33.7,30.04,West,270,2.9,14.3,55,0.00,,,0.00,WUHU216HW,2013-04-16 18:44:00,
2013-04-16 13:49:00,49.3,33.3,30.04,WNW,293,8.5,14.3,54,0.00,,,0.00,WUHU216HW,2013-04-16 18:49:00,
2013-04-16 13:54:00,49.3,34.8,30.04,NNE,23,6.9,10.7,57,0.00,,,0.00,WUHU216HW,2013-04-16 18:54:00,
2013-04-16 13:59:00,49.7,34.6,30.04,North,0,3.1,10.7,56,0.00,,,0.00,WUHU216HW,2013-04-16 18:59:00,
2013-04-16 14:04:00,49.5,33.9,30.04,SSW,203,2.9,11.4,55,0.00,,,0.00,WUHU216HW,2013-04-16 19:04:00,
2013-04-16 14:09:00,49.7,34.1,30.04,NNW,338,4.7,11.4,55,0.00,,,0.00,WUHU216HW,2013-04-16 19:09:00,
2013-04-16 14:14:00,49.9,34.3,30.04,NNW,338,6.0,12.3,55,0.00,,,0.00,WUHU216HW,2013-04-16 19:14:00,
2013-04-16 14:19:00,49.9,32.0,30.05,North,0,6.5,12.8,50,0.00,,,0.00,WUHU216HW,2013-04-16 19:19:00,
2013-04-16 14:24:00,49.9,34.3,30.04,NW,315,5.4,12.8,55,0.00,,,0.00,WUHU216HW,2013-04-16 19:24:00,
2013-04-16 14:29:00,50.2,33.8,30.04,North,0,6.5,13.4,53,0.00,,,0.00,WUHU216HW,2013-04-16 19:29:00,
2013-04-16 14:34:00,50.0,33.6,30.04,North,0,7.4,13.4,53,0.00,,,0.00,WUHU216HW,2013-04-16 19:34:00,
2013-04-16 14:39:00,50.0,32.7,30.04,NW,315,10.3,12.5,51,0.00,,,0.00,WUHU216HW,2013-04-16 19:39:00,
2013-04-16 14:44:00,50.2,34.2,30.05,NNW,338,4.7,12.5,54,0.00,,,0.00,WUHU216HW,2013-04-16 19:44:00,
2013-04-16 14:49:00,50.9,32.0,30.04,NNW,338,6.7,12.5,48,0.00,,,0.00,WUHU216HW,2013-04-16 19:49:00,
2013-04-16 14:54:00,50.6,32.1,30.04,NNE,23,4.0,12.5,49,0.00,,,0.00,WUHU216HW,2013-04-16 19:54:00,
2013-04-16 14:59:00,50.8,32.9,30.04,North,0,4.0,10.5,50,0.00,,,0.00,WUHU216HW,2013-04-16 19:59:00,
2013-04-16 15:04:00,50.8,32.9,30.04,NNE,23,6.7,9.6,50,0.00,,,0.00,WUHU216HW,2013-04-16 20:04:00,
2013-04-16 15:09:00,50.8,32.9,30.04,NNW,338,4.5,11.0,50,0.00,,,0.00,WUHU216HW,2013-04-16 20:09:00,
2013-04-16 15:14:00,51.1,33.7,30.04,WNW,293,7.2,12.1,51,0.00,,,0.00,WUHU216HW,2013-04-16 20:14:00,
2013-04-16 15:19:00,50.8,33.3,30.04,NW,315,8.1,12.1,51,0.00,,,0.00,WUHU216HW,2013-04-16 20:19:00,
2013-04-16 15:24:00,50.8,32.9,30.04,North,0,3.6,13.2,50,0.00,,,0.00,WUHU216HW,2013-04-16 20:24:00,
2013-04-16 15:29:00,51.1,33.2,30.05,NW,315,4.7,13.2,50,0.00,,,0.00,WUHU216HW,2013-04-16 20:29:00,
2013-04-16 15:34:00,51.1,33.2,30.05,North,0,4.9,10.7,50,0.00,,,0.00,WUHU216HW,2013-04-16 20:34:00,
2013-04-16 15:38:00,51.3,34.3,30.06,WNW,293,6.0,10.5,52,0.00,,,0.00,WUHU216HW,2013-04-16 20:38:00,
2013-04-16 15:43:00,51.8,33.3,30.05,NW,315,3.4,10.5,49,0.00,,,0.00,WUHU216HW,2013-04-16 20:43:00,
2013-04-16 15:48:00,51.5,33.5,30.06,North,0,6.7,11.4,50,0.00,,,0.00,WUHU216HW,2013-04-16 20:48:00,
2013-04-16 15:53:00,51.3,33.9,30.06,NNE,23,7.6,11.4,51,0.00,,,0.00,WUHU216HW,2013-04-16 20:53:00,
2013-04-16 15:58:00,51.7,33.7,30.06,NW,315,3.4,8.5,50,0.00,,,0.00,WUHU216HW,2013-04-16 20:58:00,
2013-04-16 16:03:00,51.5,34.4,30.06,West,270,3.1,8.1,52,0.00,,,0.00,WUHU216HW,2013-04-16 21:03:00,
2013-04-16 16:08:00,51.5,33.9,30.06,NNE,23,3.6,9.8,51,0.00,,,0.00,WUHU216HW,2013-04-16 21:08:00,
2013-04-16 16:13:00,51.5,33.9,30.06,North,0,4.7,11.4,51,0.00,,,0.00,WUHU216HW,2013-04-16 21:13:00,
2013-04-16 16:18:00,51.8,34.7,30.07,NE,45,5.6,11.4,52,0.00,,,0.00,WUHU216HW,2013-04-16 21:18:00,
2013-04-16 16:23:00,51.5,33.9,30.07,NNW,338,6.3,10.1,51,0.00,,,0.00,WUHU216HW,2013-04-16 21:23:00,
2013-04-16 16:28:00,51.1,34.6,30.06,North,0,6.0,11.4,53,0.00,,,0.00,WUHU216HW,2013-04-16 21:28:00,
2013-04-16 16:33:00,51.3,34.3,30.06,NNE,23,8.3,12.5,52,0.00,,,0.00,WUHU216HW,2013-04-16 21:33:00,
2013-04-16 16:38:00,51.3,33.9,30.06,North,0,9.2,12.5,51,0.00,,,0.00,WUHU216HW,2013-04-16 21:38:00,
2013-04-16 16:43:00,51.1,33.7,30.06,North,0,6.0,12.5,51,0.00,,,0.00,WUHU216HW,2013-04-16 21:43:00,
2013-04-16 16:48:00,51.1,33.2,30.06,NNE,23,6.5,12.5,50,0.00,,,0.00,WUHU216HW,2013-04-16 21:48:00,
2013-04-16 16:53:00,50.8,32.9,30.06,NNE,23,3.1,11.0,50,0.00,,,0.00,WUHU216HW,2013-04-16 21:53:00,
2013-04-16 16:58:00,50.9,33.0,30.07,NNW,338,3.4,11.0,50,0.00,,,0.00,WUHU216HW,2013-04-16 21:58:00,
2013-04-16 17:03:00,51.1,32.7,30.07,South,180,3.1,10.5,49,0.00,,,0.00,WUHU216HW,2013-04-16 22:03:00,
2013-04-16 17:08:00,50.9,32.0,30.07,NE,45,4.9,10.5,48,0.00,,,0.00,WUHU216HW,2013-04-16 22:08:00,
2013-04-16 17:13:00,50.9,31.3,30.07,NNW,338,7.4,8.1,47,0.00,,,0.00,WUHU216HW,2013-04-16 22:13:00,
2013-04-16 17:18:00,50.9,32.0,30.07,NNE,23,4.5,9.8,48,0.00,,,0.00,WUHU216HW,2013-04-16 22:18:00,
2013-04-16 17:23:00,50.8,30.6,30.07,NNE,23,6.3,9.8,46,0.00,,,0.00,WUHU216HW,2013-04-16 22:23:00,
2013-04-16 17:28:00,50.8,30.6,30.07,North,0,7.4,9.8,46,0.00,,,0.00,WUHU216HW,2013-04-16 22:28:00,
2013-04-16 17:33:00,50.6,31.1,30.07,West,270,4.7,9.8,47,0.00,,,0.00,WUHU216HW,2013-04-16 22:33:00,
2013-04-16 17:38:00,50.8,31.2,30.07,WNW,293,6.0,8.7,47,0.00,,,0.00,WUHU216HW,2013-04-16 22:38:00,
2013-04-16 17:43:00,50.8,31.2,30.07,NNE,23,7.2,8.9,47,0.00,,,0.00,WUHU216HW,2013-04-16 22:43:00,
2013-04-16 17:48:00,50.6,30.5,30.08,ESE,113,4.5,9.2,46,0.00,,,0.00,WUHU216HW,2013-04-16 22:48:00,
2013-04-16 17:53:00,50.4,30.3,30.08,NNW,338,4.3,9.2,46,0.00,,,0.00,WUHU216HW,2013-04-16 22:53:00,
2013-04-16 17:58:00,50.4,29.8,30.08,North,0,4.3,6.9,45,0.00,,,0.00,WUHU216HW,2013-04-16 22:58:00,
2013-04-16 18:03:00,50.6,30.5,30.08,North,0,5.4,6.9,46,0.00,,,0.00,WUHU216HW,2013-04-16 23:03:00,
2013-04-16 18:08:00,50.6,31.6,30.08,NW,315,3.1,6.9,48,0.00,,,0.00,WUHU216HW,2013-04-16 23:08:00,
2013-04-16 18:13:00,50.6,31.1,30.08,North,0,3.1,6.3,47,0.00,,,0.00,WUHU216HW,2013-04-16 23:13:00,
2013-04-16 18:18:00,50.8,32.3,30.08,NNE,23,6.9,6.9,49,0.00,,,0.00,WUHU216HW,2013-04-16 23:18:00,
2013-04-16 18:23:00,50.4,32.0,30.08,NNE,23,2.5,10.5,49,0.00,,,0.00,WUHU216HW,2013-04-16 23:23:00,
2013-04-16 18:28:00,50.0,31.7,30.08,North,0,7.4,10.5,49,0.00,,,0.00,WUHU216HW,2013-04-16 23:28:00,
2013-04-16 18:33:00,50.0,31.7,30.08,NNE,23,3.4,7.6,49,0.00,,,0.00,WUHU216HW,2013-04-16 23:33:00,
2013-04-16 18:38:00,50.0,31.7,30.08,NNW,338,5.4,11.0,49,0.00,,,0.00,WUHU216HW,2013-04-16 23:38:00,
2013-04-16 18:43:00,49.9,31.0,30.09,NNE,23,2.7,11.0,48,0.00,,,0.00,WUHU216HW,2013-04-16 23:43:00,
2013-04-16 18:48:00,50.2,30.7,30.08,North,0,6.7,9.2,47,0.00,,,0.00,WUHU216HW,2013-04-16 23:48:00,
2013-04-16 18:53:00,49.9,30.3,30.09,North,0,4.7,8.5,47,0.00,,,0.00,WUHU216HW,2013-04-16 23:53:00,
2013-04-16 18:58:00,49.5,30.1,30.09,North,0,4.7,8.5,47,0.00,,,0.00,WUHU216HW,2013-04-16 23:58:00,
2013-04-16 19:03:00,49.1,30.3,30.09,NNE,23,1.6,9.6,48,0.00,,,0.00,WUHU216HW,2013-04-17 00:03:00,
2013-04-16 19:08:00,49.0,30.1,30.09,NNE,23,2.5,9.6,48,0.00,,,0.00,WUHU216HW,2013-04-17 00:08:00,
2013-04-16 19:13:00,48.6,30.8,30.09,NNE,23,3.8,4.9,50,0.00,,,0.00,WUHU216HW,2013-04-17 00:13:00,
2013-04-16 19:18:00,48.6,30.8,30.09,NNE,23,2.5,5.4,50,0.00,,,0.00,WUHU216HW,2013-04-17 00:18:00,
2013-04-16 19:23:00,48.6,31.2,30.09,North,0,1.8,5.4,51,0.00,,,0.00,WUHU216HW,2013-04-17 00:23:00,
2013-04-16 19:28:00,48.6,31.2,30.09,North,0,3.1,4.0,51,0.00,,,0.00,WUHU216HW,2013-04-17 00:28:00,
2013-04-16 19:33:00,48.4,32.1,30.09,NE,45,2.5,4.3,53,0.00,,,0.00,WUHU216HW,2013-04-17 00:33:00,
2013-04-16 19:38:00,48.1,33.5,30.09,NE,45,4.5,6.9,57,0.00,,,0.00,WUHU216HW,2013-04-17 00:38:00,
2013-04-16 19:43:00,47.7,33.2,30.09,NE,45,6.3,8.5,57,0.00,,,0.00,WUHU216HW,2013-04-17 00:43:00,
2013-04-16 19:48:00,47.3,32.9,30.10,NNE,23,6.7,8.5,57,0.00,,,0.00,WUHU216HW,2013-04-17 00:48:00,
2013-04-16 19:53:00,47.2,33.1,30.10,NE,45,3.6,8.1,58,0.00,,,0.00,WUHU216HW,2013-04-17 00:53:00,
2013-04-16 19:58:00,47.0,32.5,30.10,NE,45,5.6,6.9,57,0.00,,,0.00,WUHU216HW,2013-04-17 00:58:00,
2013-04-16 20:03:00,46.8,32.3,30.10,NE,45,4.9,6.9,57,0.00,,,0.00,WUHU216HW,2013-04-17 01:03:00,
2013-04-16 20:08:00,46.6,32.6,30.11,NE,45,2.5,6.9,58,0.00,,,0.00,WUHU216HW,2013-04-17 01:08:00,
2013-04-16 20:13:00,46.4,32.9,30.11,NNE,23,5.1,6.7,59,0.00,,,0.00,WUHU216HW,2013-04-17 01:13:00,
2013-04-16 20:18:00,46.3,32.7,30.11,NE,45,4.0,5.8,59,0.00,,,0.00,WUHU216HW,2013-04-17 01:18:00,
2013-04-16 20:23:00,46.1,32.9,30.11,NNE,23,4.3,5.8,60,0.00,,,0.00,WUHU216HW,2013-04-17 01:23:00,
2013-04-16 20:28:00,46.1,33.4,30.11,NE,45,5.8,6.0,61,0.00,,,0.00,WUHU216HW,2013-04-17 01:28:00,
2013-04-16 20:33:00,45.7,33.4,30.11,NNE,23,4.5,6.7,62,0.00,,,0.00,WUHU216HW,2013-04-17 01:33:00,
2013-04-16 20:38:00,45.5,33.7,30.11,NNE,23,5.1,6.7,63,0.00,,,0.00,WUHU216HW,2013-04-17 01:38:00,
2013-04-16 20:43:00,45.2,33.3,30.12,NNE,23,5.8,7.2,63,0.00,,,0.00,WUHU216HW,2013-04-17 01:43:00,
2013-04-16 20:48:00,45.0,33.6,30.12,NNE,23,5.4,7.2,64,0.00,,,0.00,WUHU216HW,2013-04-17 01:48:00,
2013-04-16 20:53:00,44.8,33.8,30.12,NNE,23,4.3,6.9,65,0.00,,,0.00,WUHU216HW,2013-04-17 01:53:00,
2013-04-16 20:58:00,44.5,33.8,30.12,NE,45,4.9,5.4,66,0.00,,,0.00,WUHU216HW,2013-04-17 01:58:00,
2013-04-16 21:03:00,44.3,33.6,30.13,NE,45,5.4,5.4,66,0.00,,,0.00,WUHU216HW,2013-04-17 02:03:00,
2013-04-16 21:08:00,44.1,33.5,30.13,NNE,23,3.4,5.4,66,0.00,,,0.00,WUHU216HW,2013-04-17 02:08:00,
2013-04-16 21:13:00,43.9,33.3,30.13,NNE,23,5.8,5.8,66,0.00,,,0.00,WUHU216HW,2013-04-17 02:13:00,
2013-04-16 21:18:00,43.9,33.7,30.13,NNE,23,5.4,6.0,67,0.00,,,0.00,WUHU216HW,2013-04-17 02:18:00,
2013-04-16 21:23:00,43.6,33.8,30.13,NNE,23,4.7,6.0,68,0.00,,,0.00,WUHU216HW,2013-04-17 02:23:00,
2013-04-16 21:28:00,43.6,33.8,30.14,NE,45,3.4,5.6,68,0.00,,,0.00,WUHU216HW,2013-04-17 02:28:00,
2013-04-16 21:33:00,43.2,33.4,30.14,NE,45,6.5,6.5,68,0.00,,,0.00,WUHU216HW,2013-04-17 02:33:00,
2013-04-16 21:38:00,43.2,33.4,30.14,NNE,23,4.9,6.5,68,0.00,,,0.00,WUHU216HW,2013-04-17 02:38:00,
2013-04-16 21:43:00,42.8,33.0,30.14,NNE,23,5.4,6.5,68,0.00,,,0.00,WUHU216HW,2013-04-17 02:43:00,
2013-04-16 21:48:00,42.8,33.5,30.14,NE,45,5.4,7.8,69,0.00,,,0.00,WUHU216HW,2013-04-17 02:48:00,
2013-04-16 21:53:00,42.8,33.5,30.14,North,0,5.6,7.8,69,0.00,,,0.00,WUHU216HW,2013-04-17 02:53:00,
2013-04-16 21:58:00,42.8,33.8,30.14,NNE,23,4.7,6.9,70,0.00,,,0.00,WUHU216HW,2013-04-17 02:58:00,
2013-04-16 22:03:00,42.7,33.7,30.14,NNE,23,5.4,6.9,70,0.00,,,0.00,WUHU216HW,2013-04-17 03:03:00,
2013-04-16 22:08:00,42.5,33.5,30.14,NNE,23,5.4,7.6,70,0.00,,,0.00,WUHU216HW,2013-04-17 03:08:00,
2013-04-16 22:13:00,42.3,33.7,30.14,NE,45,4.5,7.6,71,0.00,,,0.00,WUHU216HW,2013-04-17 03:13:00,
2013-04-16 22:18:00,42.1,33.5,30.14,North,0,5.4,6.9,71,0.00,,,0.00,WUHU216HW,2013-04-17 03:18:00,
2013-04-16 22:23:00,42.1,33.8,30.14,NE,45,4.7,6.9,72,0.00,,,0.00,WUHU216HW,2013-04-17 03:23:00,
2013-04-16 22:28:00,41.8,33.8,30.14,NNE,23,7.2,7.2,73,0.00,,,0.00,WUHU216HW,2013-04-17 03:28:00,
2013-04-16 22:33:00,41.8,33.8,30.15,NNE,23,5.4,7.2,73,0.00,,,0.00,WUHU216HW,2013-04-17 03:33:00,
2013-04-16 22:38:00,41.6,33.6,30.14,NE,45,4.7,7.2,73,0.00,,,0.00,WUHU216HW,2013-04-17 03:38:00,
2013-04-16 22:43:00,41.6,33.8,30.14,NNW,338,4.3,7.2,74,0.00,,,0.00,WUHU216HW,2013-04-17 03:43:00,
2013-04-16 22:48:00,41.6,33.6,30.14,NE,45,6.3,8.3,73,0.00,,,0.00,WUHU216HW,2013-04-17 03:48:00,
2013-04-16 22:53:00,41.6,33.6,30.15,NNE,23,6.3,8.3,73,0.00,,,0.00,WUHU216HW,2013-04-17 03:53:00,
2013-04-16 22:58:00,41.6,33.6,30.15,NNE,23,4.5,6.3,73,0.00,,,0.00,WUHU216HW,2013-04-17 03:58:00,
2013-04-16 23:00:00,41.4,33.7,30.14,NNE,23,3.8,6.3,74,0.00,,,0.00,WUHU216HW,2013-04-17 04:00:00,
2013-04-16 23:05:00,41.4,33.7,30.15,NE,45,3.8,5.8,74,0.00,,,0.00,WUHU216HW,2013-04-17 04:05:00,
2013-04-16 23:10:00,41.4,33.7,30.14,NNE,23,3.4,5.8,74,0.00,,,0.00,WUHU216HW,2013-04-17 04:10:00,
2013-04-16 23:15:00,41.4,33.7,30.14,NNE,23,2.9,5.8,74,0.00,,,0.00,WUHU216HW,2013-04-17 04:15:00,
2013-04-16 23:20:00,41.4,33.7,30.15,North,0,1.8,4.7,74,0.00,,,0.00,WUHU216HW,2013-04-17 04:20:00,
2013-04-16 23:25:00,41.4,33.7,30.15,NE,45,2.7,4.7,74,0.00,,,0.00,WUHU216HW,2013-04-17 04:25:00,
2013-04-16 23:30:00,41.4,33.7,30.16,NNE,23,1.6,4.7,74,0.00,,,0.00,WUHU216HW,2013-04-17 04:30:00,
2013-04-16 23:35:00,41.4,33.7,30.16,NNE,23,3.6,4.5,74,0.00,,,0.00,WUHU216HW,2013-04-17 04:35:00,
2013-04-16 23:40:00,41.4,33.7,30.15,NNE,23,3.4,4.5,74,0.00,,,0.00,WUHU216HW,2013-04-17 04:40:00,
2013-04-16 23:45:00,41.4,33.7,30.15,NNE,23,4.0,4.9,74,0.00,,,0.00,WUHU216HW,2013-04-17 04:45:00,
2013-04-16 23:50:00,41.4,33.4,30.15,NE,45,5.4,6.3,73,0.00,,,0.00,WUHU216HW,2013-04-17 04:50:00,
2013-04-16 23:55:00,41.4,33.4,30.16,NNE,23,3.6,6.3,73,0.00,,,0.00,WUHU216HW,2013-04-17 04:55:00,